Dybbol, Denmark
Current Conditions -  °F | °C
As of 4:20 AM on Sunday 23 Nov 2014 (Local Time) from ETGG Reporting Station
Broken Clouds Broken Clouds  
Wind Chill: 34°   Ceiling: 3000
Heat Index: 41°   Visibility: 4mi
Dew Point: 39°   Wind: 12mph
Humidity: 93%   Direction: 130°SE
Pressure: 30.12"   Gusts: NA
Location:  54.91°N, 9.74°E
Report Text: ETGG 230320Z 13010KT 7000 BKN030 05/04 Q1020 WHT
Loading
Personal Weather Stations






























Interactive Weather Map New forecast layout! Learn more

10-Day Weather Forecast

Advertisements
Track Severe Weather on mobile